Time;durP1;ratioP1;P1;durP2;ratioP2;P2;SDS_P1;SDS_P2;PMS_P1;PMS_P2;Temp;Humidity;BMP_temperature;BMP_pressure;BME280_temperature;BME280_humidity;BME280_pressure;Samples;Min_cycle;Max_cycle;Signal;HPM_P1;HPM_P2
2022/01/31 00:02:24;;;;;;;19.50;4.07;;;4.20;99.90;;;;;;6281295;22;20022;-83
2022/01/31 00:04:50;;;;;;;20.85;4.55;;;4.20;99.90;;;;;;6281250;22;20022;-82
2022/01/31 00:07:15;;;;;;;17.90;4.18;;;4.20;99.90;;;;;;6281007;22;20015;-83
2022/01/31 00:09:43;;;;;;;19.50;4.85;;;4.10;99.90;;;;;;6281020;22;20080;-83
2022/01/31 00:12:13;;;;;;;17.92;5.55;;;4.20;99.90;;;;;;6281049;22;20023;-83
2022/01/31 00:17:05;;;;;;;13.27;4.60;;;4.20;99.90;;;;;;6281177;22;20061;-83
2022/01/31 00:19:31;;;;;;;18.10;5.70;;;4.10;99.90;;;;;;6281231;22;20049;-83
2022/01/31 00:22:00;;;;;;;20.45;6.40;;;4.10;99.90;;;;;;6281042;22;20068;-85
2022/01/31 00:24:26;;;;;;;17.77;5.80;;;4.10;99.90;;;;;;6308413;22;20090;-83
2022/01/31 00:26:52;;;;;;;21.80;6.72;;;4.10;99.90;;;;;;6280982;22;20043;-83
2022/01/31 00:29:17;;;;;;;14.00;5.47;;;4.10;99.90;;;;;;6280991;22;20019;-82
2022/01/31 00:31:43;;;;;;;22.77;6.47;;;4.10;99.90;;;;;;6280764;22;20011;-82
2022/01/31 00:34:12;;;;;;;17.15;6.97;;;4.10;99.90;;;;;;6280845;22;20086;-83
2022/01/31 00:36:38;;;;;;;21.45;7.43;;;4.20;99.90;;;;;;6280929;22;20011;-83
2022/01/31 00:39:04;;;;;;;16.55;7.38;;;4.10;99.90;;;;;;6280976;22;20022;-83
2022/01/31 00:41:30;;;;;;;19.75;7.95;;;4.10;99.90;;;;;;6280828;22;20015;-83
2022/01/31 00:44:02;;;;;;;24.88;8.75;;;4.10;99.90;;;;;;6281005;22;20038;-83
2022/01/31 00:46:41;;;;;;;25.57;9.43;;;4.00;99.90;;;;;;6280947;22;20023;-83
2022/01/31 00:49:12;;;;;;;30.52;11.38;;;4.00;99.90;;;;;;6280909;22;20454;-83
2022/01/31 00:51:38;;;;;;;21.95;8.13;;;4.00;99.90;;;;;;6280631;22;20016;-83
2022/01/31 00:54:04;;;;;;;20.20;7.90;;;4.00;99.90;;;;;;6280585;22;20442;-83
2022/01/31 00:56:29;;;;;;;26.13;8.32;;;4.00;99.90;;;;;;6280820;22;20486;-82
2022/01/31 00:58:55;;;;;;;22.90;9.15;;;4.00;99.90;;;;;;6280915;22;20034;-82
2022/01/31 01:01:20;;;;;;;21.85;8.52;;;4.00;99.90;;;;;;6280794;22;20019;-82
2022/01/31 01:03:46;;;;;;;24.20;8.70;;;4.00;99.90;;;;;;6280503;22;20088;-81
2022/01/31 01:06:12;;;;;;;24.70;8.00;;;3.90;99.90;;;;;;6280740;22;20015;-81
2022/01/31 01:08:38;;;;;;;25.08;7.95;;;3.90;99.90;;;;;;6274376;22;20024;-81
2022/01/31 01:11:07;;;;;;;19.25;8.63;;;3.90;99.90;;;;;;6274469;22;20047;-81
2022/01/31 01:13:32;;;;;;;22.85;8.15;;;3.90;99.90;;;;;;6274368;22;20016;-81
2022/01/31 01:15:58;;;;;;;27.35;9.23;;;3.90;99.90;;;;;;6274293;22;20054;-82
2022/01/31 01:18:30;;;;;;;18.35;7.90;;;3.80;99.90;;;;;;6274381;22;20046;-82
2022/01/31 01:20:55;;;;;;;23.40;7.63;;;3.90;99.90;;;;;;6274308;22;20050;-81
2022/01/31 01:23:21;;;;;;;29.42;8.65;;;3.80;99.90;;;;;;6274271;22;20019;-81
2022/01/31 01:25:47;;;;;;;23.15;8.88;;;3.80;99.90;;;;;;6274299;22;20012;-81
2022/01/31 01:28:13;;;;;;;22.27;8.32;;;3.80;99.90;;;;;;6274231;22;20020;-80
2022/01/31 01:30:39;;;;;;;19.13;8.80;;;3.80;99.90;;;;;;6274278;22;20012;-81
2022/01/31 01:33:10;;;;;;;20.58;8.65;;;3.80;99.90;;;;;;6274155;22;20094;-81
2022/01/31 01:35:38;;;;;;;19.02;9.18;;;3.80;99.90;;;;;;6274163;22;20019;-81
2022/01/31 01:38:07;;;;;;;21.77;11.52;;;3.80;99.90;;;;;;6274149;22;20397;-81
2022/01/31 01:40:34;;;;;;;24.58;9.30;;;3.80;99.90;;;;;;6274134;22;20023;-81
2022/01/31 01:43:00;;;;;;;21.50;10.45;;;3.70;99.90;;;;;;6274132;22;20022;-81
2022/01/31 01:45:25;;;;;;;21.27;10.90;;;3.70;99.90;;;;;;6274105;22;20012;-81
2022/01/31 01:47:51;;;;;;;18.40;8.65;;;3.70;99.90;;;;;;6274056;22;20077;-81
2022/01/31 01:50:17;;;;;;;21.35;10.40;;;3.70;99.90;;;;;;6274046;22;20015;-81
2022/01/31 01:52:43;;;;;;;18.52;10.27;;;3.70;99.90;;;;;;6273933;22;20023;-81
2022/01/31 01:55:09;;;;;;;19.48;9.60;;;3.60;99.90;;;;;;6273990;22;20022;-81
2022/01/31 01:57:34;;;;;;;17.52;8.75;;;3.60;99.90;;;;;;6273999;22;20019;-81
2022/01/31 02:00:00;;;;;;;16.58;8.95;;;3.60;99.90;;;;;;6273920;22;20008;-81
2022/01/31 02:02:26;;;;;;;15.10;9.52;;;3.60;99.90;;;;;;6274012;22;20378;-81
2022/01/31 02:04:52;;;;;;;13.82;7.93;;;3.50;99.90;;;;;;6275334;22;20016;-81
2022/01/31 02:07:19;;;;;;;14.90;7.57;;;3.50;99.90;;;;;;6226722;22;1132434;-81
2022/01/31 02:09:53;;;;;;;9.52;6.28;;;3.50;99.90;;;;;;6277279;22;20109;-81
2022/01/31 02:12:19;;;;;;;13.73;5.78;;;3.50;99.90;;;;;;6277172;22;20012;-81
2022/01/31 02:14:47;;;;;;;10.65;6.20;;;3.50;99.90;;;;;;6277260;22;20047;-81
2022/01/31 02:17:13;;;;;;;8.68;5.93;;;3.50;99.90;;;;;;6277166;22;20011;-82
2022/01/31 02:19:39;;;;;;;9.07;4.85;;;3.40;99.90;;;;;;6277103;22;20023;-83
2022/01/31 02:22:04;;;;;;;10.23;5.65;;;3.40;99.90;;;;;;6277162;22;20057;-82
2022/01/31 02:24:30;;;;;;;7.32;4.63;;;3.30;99.90;;;;;;6277119;22;20072;-83
2022/01/31 02:26:57;;;;;;;9.50;4.53;;;3.30;99.90;;;;;;6278885;22;20031;-83
2022/01/31 02:29:25;;;;;;;8.40;4.20;;;3.30;99.90;;;;;;6277162;22;20007;-85
2022/01/31 02:31:51;;;;;;;9.98;6.00;;;3.40;99.90;;;;;;6277275;22;20094;-85
2022/01/31 02:34:17;;;;;;;7.90;4.20;;;3.30;99.90;;;;;;6277062;22;20463;-84
2022/01/31 02:36:43;;;;;;;9.93;4.82;;;3.30;99.90;;;;;;6276910;22;20004;-82
2022/01/31 02:39:09;;;;;;;7.63;4.45;;;3.40;99.90;;;;;;6276974;22;20084;-83
2022/01/31 02:41:43;;;;;;;11.10;4.75;;;3.30;99.90;;;;;;6276983;22;20087;-83
2022/01/31 02:44:15;;;;;;;10.40;4.65;;;3.30;99.90;;;;;;6276986;22;20069;-83
2022/01/31 02:46:51;;;;;;;9.52;5.07;;;3.40;99.90;;;;;;6276994;22;20359;-83
2022/01/31 02:49:20;;;;;;;11.45;6.18;;;3.40;99.90;;;;;;6276796;22;20396;-83
2022/01/31 02:51:49;;;;;;;13.43;6.35;;;3.50;99.90;;;;;;6276768;22;20016;-83
2022/01/31 02:54:15;;;;;;;13.88;6.95;;;3.50;99.90;;;;;;6276842;22;20027;-83
2022/01/31 02:56:41;;;;;;;13.88;7.07;;;3.50;99.90;;;;;;6278773;22;20015;-84
2022/01/31 02:59:07;;;;;;;16.42;6.63;;;3.60;99.90;;;;;;6276812;22;20090;-83
2022/01/31 03:01:37;;;;;;;12.88;5.65;;;3.70;99.90;;;;;;6276703;22;20008;-83
2022/01/31 03:04:03;;;;;;;13.10;4.88;;;3.80;99.90;;;;;;6278205;22;20041;-83
2022/01/31 03:06:29;;;;;;;16.38;7.18;;;3.90;99.90;;;;;;6276532;22;20030;-83
2022/01/31 03:08:55;;;;;;;8.98;5.53;;;3.80;99.90;;;;;;6276401;22;20012;-83
2022/01/31 03:11:21;;;;;;;13.40;5.35;;;3.80;99.90;;;;;;6278667;22;20016;-83
2022/01/31 03:13:46;;;;;;;15.38;5.63;;;3.90;99.90;;;;;;6276279;22;20086;-84
2022/01/31 03:16:18;;;;;;;14.23;4.95;;;3.90;99.90;;;;;;6276306;22;20051;-83
2022/01/31 03:18:44;;;;;;;12.32;6.05;;;3.90;99.90;;;;;;6276807;22;20011;-83
2022/01/31 03:21:10;;;;;;;16.67;4.97;;;4.00;99.90;;;;;;6276536;22;20016;-83
2022/01/31 03:23:35;;;;;;;18.42;5.00;;;4.00;99.90;;;;;;6276488;22;20015;-83
2022/01/31 03:26:01;;;;;;;22.30;6.10;;;4.20;99.90;;;;;;6276610;22;20020;-84
2022/01/31 03:28:27;;;;;;;25.52;5.88;;;4.30;99.90;;;;;;6276535;22;20012;-84
2022/01/31 03:30:52;;;;;;;19.70;4.38;;;4.50;99.90;;;;;;6276395;22;20018;-84
2022/01/31 03:33:18;;;;;;;29.27;5.03;;;4.70;99.90;;;;;;6276341;22;20023;-86
2022/01/31 03:35:44;;;;;;;17.20;2.88;;;4.90;99.90;;;;;;6276446;22;20019;-87
2022/01/31 03:38:09;;;;;;;11.80;2.40;;;5.10;99.90;;;;;;6276464;22;20046;-85
2022/01/31 03:40:35;;;;;;;15.15;1.88;;;5.10;99.90;;;;;;6276446;22;20015;-84
2022/01/31 03:43:03;;;;;;;14.15;2.72;;;5.20;99.90;;;;;;6276359;22;20047;-85
2022/01/31 03:45:33;;;;;;;10.38;1.48;;;5.20;99.90;;;;;;6276357;22;20023;-84
2022/01/31 03:48:00;;;;;;;4.82;1.30;;;5.20;99.90;;;;;;6277955;22;20019;-87
2022/01/31 03:50:27;;;;;;;13.98;2.42;;;5.30;99.90;;;;;;6277660;22;20459;-86
2022/01/31 03:52:53;;;;;;;12.00;2.53;;;5.20;99.90;;;;;;6276145;22;20015;-87
2022/01/31 03:55:20;;;;;;;13.50;1.45;;;5.20;99.90;;;;;;6276247;22;20023;-85
2022/01/31 03:57:46;;;;;;;12.70;2.15;;;5.20;99.90;;;;;;6276198;22;20094;-86
2022/01/31 04:00:13;;;;;;;7.15;1.30;;;5.10;99.90;;;;;;6276193;22;20047;-85
2022/01/31 04:02:40;;;;;;;10.57;2.08;;;5.20;99.90;;;;;;6276115;22;20019;-86
2022/01/31 04:05:07;;;;;;;16.70;2.58;;;5.20;99.90;;;;;;6276129;22;20043;-85
2022/01/31 04:07:32;;;;;;;19.65;2.45;;;5.30;99.90;;;;;;6275910;22;20348;-85
2022/01/31 04:09:58;;;;;;;18.88;2.58;;;5.30;99.90;;;;;;6276134;22;20448;-85
2022/01/31 04:12:24;;;;;;;18.25;2.72;;;5.40;99.90;;;;;;6276023;22;20026;-85
2022/01/31 04:14:49;;;;;;;29.05;3.70;;;5.40;99.90;;;;;;6275999;22;20016;-85
2022/01/31 04:17:19;;;;;;;21.98;4.05;;;5.40;99.90;;;;;;6276441;22;20016;-85
2022/01/31 04:19:46;;;;;;;27.77;3.78;;;5.40;99.90;;;;;;6276010;22;20447;-85
2022/01/31 04:22:15;;;;;;;29.40;4.47;;;5.40;99.90;;;;;;6275939;22;20022;-86
2022/01/31 04:24:42;;;;;;;19.35;4.38;;;5.50;99.90;;;;;;6276807;22;20027;-85
2022/01/31 04:27:09;;;;;;;22.23;3.35;;;5.50;99.90;;;;;;6275780;22;20022;-85
2022/01/31 04:29:40;;;;;;;23.30;3.85;;;5.60;99.90;;;;;;6275771;22;20012;-86
2022/01/31 04:32:06;;;;;;;23.38;4.28;;;5.70;99.90;;;;;;6275767;22;20015;-85
2022/01/31 04:34:31;;;;;;;20.98;3.75;;;5.70;99.90;;;;;;6275865;22;20019;-85
2022/01/31 04:36:58;;;;;;;30.42;4.38;;;5.70;99.90;;;;;;6275383;22;20042;-85
2022/01/31 04:39:24;;;;;;;22.80;3.90;;;5.70;99.90;;;;;;6275815;22;20047;-84
2022/01/31 04:41:51;;;;;;;27.58;3.80;;;5.60;99.90;;;;;;6275833;22;20383;-84
2022/01/31 04:44:17;;;;;;;18.42;3.30;;;5.60;99.90;;;;;;6275758;22;20016;-84
2022/01/31 04:46:48;;;;;;;22.20;3.15;;;5.50;99.90;;;;;;6275771;22;20098;-86
2022/01/31 04:49:15;;;;;;;17.80;3.83;;;5.50;99.90;;;;;;6275793;22;20019;-85
2022/01/31 04:51:41;;;;;;;15.13;2.28;;;5.60;99.90;;;;;;6275626;22;20015;-85
2022/01/31 04:54:06;;;;;;;18.90;2.72;;;5.60;99.90;;;;;;6275759;22;20105;-86
2022/01/31 04:56:33;;;;;;;9.73;2.17;;;5.50;99.90;;;;;;6275724;22;20042;-86
2022/01/31 04:58:58;;;;;;;7.68;1.42;;;5.40;99.90;;;;;;6275623;22;20073;-86
2022/01/31 05:01:24;;;;;;;11.13;2.00;;;5.40;99.90;;;;;;6275682;22;20016;-86
2022/01/31 05:03:50;;;;;;;11.45;1.90;;;5.30;99.90;;;;;;6275724;22;20012;-86
2022/01/31 05:06:35;;;;;;;8.60;1.85;;;5.40;99.90;;;;;;6275569;22;20022;-88
2022/01/31 05:09:01;;;;;;;14.73;2.78;;;5.40;99.90;;;;;;6275597;22;20023;-84
2022/01/31 05:11:27;;;;;;;19.65;2.65;;;5.30;99.90;;;;;;6275469;22;20012;-87
2022/01/31 05:13:52;;;;;;;18.73;2.08;;;5.30;99.90;;;;;;6275507;22;20026;-87
2022/01/31 05:16:18;;;;;;;19.27;3.30;;;5.30;99.90;;;;;;6275511;22;20519;-89
2022/01/31 05:18:44;;;;;;;13.20;2.58;;;5.30;99.90;;;;;;6275461;22;20447;-87
2022/01/31 05:21:10;;;;;;;13.85;2.13;;;5.40;99.90;;;;;;6276975;22;20046;-88
2022/01/31 05:23:38;;;;;;;16.58;2.70;;;5.40;99.90;;;;;;6277376;22;20033;-87
2022/01/31 05:26:04;;;;;;;12.02;1.48;;;5.40;99.90;;;;;;6275388;22;20443;-85
2022/01/31 05:28:30;;;;;;;11.18;3.63;;;5.40;99.90;;;;;;6275508;22;20026;-85
2022/01/31 05:30:55;;;;;;;12.77;2.08;;;5.40;99.90;;;;;;6276974;22;20019;-88
2022/01/31 05:33:21;;;;;;;8.90;1.73;;;5.40;99.90;;;;;;6277234;22;20019;-86
2022/01/31 05:35:47;;;;;;;13.60;2.10;;;5.40;99.90;;;;;;6275427;22;20015;-86
2022/01/31 05:38:13;;;;;;;11.80;1.42;;;5.30;99.90;;;;;;6276231;22;20065;-88
2022/01/31 05:40:39;;;;;;;11.32;1.92;;;5.20;99.90;;;;;;6277542;22;20012;-88
2022/01/31 05:43:04;;;;;;;16.20;1.80;;;5.20;99.90;;;;;;6277537;22;20061;-87
2022/01/31 05:45:30;;;;;;;18.33;1.60;;;5.30;99.90;;;;;;6277510;22;20047;-88
2022/01/31 05:47:56;;;;;;;12.40;1.98;;;5.30;99.90;;;;;;6277482;22;20016;-86
2022/01/31 05:50:22;;;;;;;13.15;2.45;;;5.20;99.90;;;;;;6277439;22;20530;-86
2022/01/31 05:52:51;;;;;;;8.68;1.73;;;5.30;99.90;;;;;;6277355;22;20023;-87
2022/01/31 05:55:17;;;;;;;15.05;2.78;;;5.30;99.90;;;;;;6277350;22;20007;-86
2022/01/31 05:57:43;;;;;;;12.43;2.85;;;5.40;99.90;;;;;;6277343;22;20018;-85
2022/01/31 06:00:10;;;;;;;9.10;1.45;;;5.30;99.90;;;;;;6277399;22;20015;-86
2022/01/31 06:02:35;;;;;;;14.30;1.70;;;5.30;99.90;;;;;;6278914;22;20024;-86
2022/01/31 06:05:02;;;;;;;10.18;1.88;;;5.20;99.90;;;;;;6277349;22;20008;-87
2022/01/31 06:07:28;;;;;;;11.30;1.50;;;5.20;99.90;;;;;;6277045;22;20016;-88
2022/01/31 06:09:53;;;;;;;8.02;0.95;;;5.20;99.90;;;;;;6278824;22;20026;-87
2022/01/31 06:12:22;;;;;;;13.27;1.65;;;5.20;99.90;;;;;;6277090;22;20012;-86
2022/01/31 06:14:48;;;;;;;13.30;1.83;;;5.20;99.90;;;;;;6277264;22;20082;-87
2022/01/31 06:17:14;;;;;;;11.98;1.85;;;5.20;99.90;;;;;;6277277;22;20363;-87
2022/01/31 06:19:39;;;;;;;11.07;1.90;;;5.30;99.90;;;;;;6277161;22;20016;-87
2022/01/31 06:22:05;;;;;;;18.05;2.28;;;5.30;99.90;;;;;;6277311;22;20091;-86
2022/01/31 06:24:31;;;;;;;22.02;2.88;;;5.30;99.90;;;;;;6277149;22;20328;-87
2022/01/31 06:26:59;;;;;;;14.93;2.20;;;5.30;99.90;;;;;;6277110;22;20336;-86
2022/01/31 06:29:25;;;;;;;13.77;1.85;;;5.40;99.90;;;;;;6277077;22;20085;-86
2022/01/31 06:31:50;;;;;;;10.30;2.08;;;5.30;99.90;;;;;;6277384;22;20016;-86
2022/01/31 06:34:18;;;;;;;17.10;2.33;;;5.40;99.90;;;;;;6277066;22;20317;-86
2022/01/31 06:36:44;;;;;;;8.20;1.73;;;5.30;99.90;;;;;;6278872;22;20039;-88
2022/01/31 06:39:10;;;;;;;15.52;1.40;;;5.40;99.90;;;;;;6276962;22;20020;-86
2022/01/31 06:41:36;;;;;;;13.75;2.42;;;5.50;99.90;;;;;;6276946;22;20011;-88
2022/01/31 06:44:02;;;;;;;17.30;3.13;;;5.50;99.90;;;;;;6276968;22;20047;-88
2022/01/31 06:46:28;;;;;;;12.98;1.98;;;5.60;99.90;;;;;;6276885;22;20088;-86
2022/01/31 06:48:53;;;;;;;13.77;2.08;;;5.60;99.90;;;;;;6276673;22;20039;-87
2022/01/31 06:51:19;;;;;;;15.10;2.45;;;5.60;99.90;;;;;;6276680;22;20018;-86
2022/01/31 06:53:48;;;;;;;9.85;1.50;;;5.60;99.90;;;;;;6276897;22;20090;-85
2022/01/31 06:56:17;;;;;;;12.05;3.70;;;5.50;99.90;;;;;;6276798;22;20008;-86
2022/01/31 06:58:45;;;;;;;17.30;2.40;;;5.50;99.90;;;;;;6276869;22;20027;-85
2022/01/31 07:01:11;;;;;;;12.82;2.35;;;5.50;99.90;;;;;;6276856;22;20012;-85
2022/01/31 07:03:37;;;;;;;13.57;2.53;;;5.50;99.90;;;;;;6278609;22;20034;-85
2022/01/31 07:06:03;;;;;;;15.35;3.05;;;5.40;99.90;;;;;;6276748;22;20016;-85
2022/01/31 07:08:29;;;;;;;23.02;4.32;;;5.40;99.90;;;;;;6276595;22;20073;-85
2022/01/31 07:10:55;;;;;;;17.02;2.58;;;5.40;99.90;;;;;;6276752;22;20024;-85
2022/01/31 07:15:58;;;;;;;13.80;2.83;;;5.40;99.90;;;;;;6276446;22;20344;-87
2022/01/31 07:18:24;;;;;;;11.25;2.13;;;5.40;99.90;;;;;;6276194;22;20019;-86
2022/01/31 07:20:53;;;;;;;11.13;1.85;;;5.40;99.90;;;;;;6276090;22;20015;-85
2022/01/31 07:26:03;;;;;;;11.60;1.98;;;5.40;99.90;;;;;;6276102;22;20489;-86
2022/01/31 07:28:29;;;;;;;9.50;1.73;;;5.50;99.90;;;;;;6274684;22;20015;-86
2022/01/31 07:30:56;;;;;;;11.65;2.05;;;5.50;99.90;;;;;;6276896;22;20023;-88
2022/01/31 07:33:22;;;;;;;7.22;1.17;;;5.60;99.90;;;;;;6276300;22;20050;-87
2022/01/31 07:35:49;;;;;;;3.08;0.88;;;5.70;99.90;;;;;;6276360;22;20011;-85
2022/01/31 07:38:17;;;;;;;6.65;0.75;;;5.70;99.90;;;;;;6276306;22;20076;-85
2022/01/31 07:40:43;;;;;;;4.35;0.68;;;5.80;99.90;;;;;;6276288;22;20019;-85
2022/01/31 07:43:09;;;;;;;3.35;1.10;;;5.80;99.90;;;;;;6276726;22;20020;-85
2022/01/31 07:45:35;;;;;;;8.55;1.17;;;5.80;99.90;;;;;;6278039;22;20382;-86
2022/01/31 07:48:00;;;;;;;8.38;0.70;;;5.80;99.90;;;;;;6276103;22;20106;-85
2022/01/31 07:50:27;;;;;;;12.80;1.48;;;5.80;99.90;;;;;;6276544;22;20016;-86
2022/01/31 07:52:53;;;;;;;9.73;1.25;;;5.70;99.90;;;;;;6276047;22;20023;-85
2022/01/31 07:55:18;;;;;;;17.27;2.20;;;5.70;99.90;;;;;;6276515;22;20157;-85
2022/01/31 07:57:46;;;;;;;9.45;1.10;;;5.80;99.90;;;;;;6276162;22;20020;-85
2022/01/31 08:00:14;;;;;;;5.65;1.10;;;5.80;99.90;;;;;;6275682;22;20058;-86
2022/01/31 08:02:53;;;;;;;9.10;0.77;;;5.80;99.90;;;;;;6275976;22;20019;-85
2022/01/31 08:05:24;;;;;;;9.20;1.15;;;5.90;99.90;;;;;;6276085;22;20054;-85
2022/01/31 08:07:53;;;;;;;4.20;1.92;;;5.90;99.90;;;;;;6275687;22;20451;-86
2022/01/31 08:10:36;;;;;;;13.48;1.67;;;5.90;99.90;;;;;;6275858;22;20343;-85
2022/01/31 08:13:04;;;;;;;4.30;0.60;;;5.90;99.90;;;;;;6275853;22;20024;-84
2022/01/31 08:15:48;;;;;;;10.35;1.05;;;5.90;99.90;;;;;;6275937;22;20090;-85
2022/01/31 08:18:15;;;;;;;6.05;1.35;;;6.00;99.90;;;;;;6275965;22;20015;-87
2022/01/31 08:20:41;;;;;;;6.28;0.80;;;6.00;99.90;;;;;;6276343;22;20023;-84
2022/01/31 08:23:08;;;;;;;10.25;1.30;;;6.00;99.90;;;;;;6274857;22;20759;-84
2022/01/31 08:25:36;;;;;;;6.75;1.08;;;6.00;99.90;;;;;;6277320;22;20043;-87
2022/01/31 08:28:09;;;;;;;6.68;1.17;;;6.00;99.90;;;;;;6275976;22;20031;-85
2022/01/31 08:30:48;;;;;;;10.30;2.20;;;6.00;99.90;;;;;;6276059;22;20047;-85
2022/01/31 08:36:12;;;;;;;14.95;2.55;;;6.10;99.90;;;;;;6195672;22;20492;-84
2022/01/31 08:38:40;;;;;;;13.98;1.52;;;6.20;99.90;;;;;;6275636;22;20031;-84
2022/01/31 08:41:07;;;;;;;5.22;1.77;;;6.20;99.90;;;;;;6275576;22;20072;-84
2022/01/31 08:43:34;;;;;;;7.22;2.22;;;6.40;99.90;;;;;;6275330;22;20016;-86
2022/01/31 08:46:00;;;;;;;21.58;1.83;;;6.30;99.90;;;;;;6275290;22;20030;-88
2022/01/31 08:48:27;;;;;;;8.80;1.00;;;6.30;99.90;;;;;;6275438;22;20073;-84
2022/01/31 08:50:53;;;;;;;8.45;1.10;;;6.30;99.90;;;;;;6275356;22;20024;-84
2022/01/31 08:53:19;;;;;;;6.13;1.33;;;6.30;99.90;;;;;;6275348;22;20503;-85
2022/01/31 08:55:56;;;;;;;4.60;0.68;;;6.40;99.90;;;;;;6275337;22;20074;-85
2022/01/31 08:58:22;;;;;;;7.20;1.20;;;6.40;99.90;;;;;;6275419;22;20073;-83
2022/01/31 09:00:57;;;;;;;8.57;0.82;;;6.40;99.90;;;;;;6275358;22;20011;-84
2022/01/31 09:06:09;;;;;;;13.27;1.77;;;6.50;99.90;;;;;;6277028;22;20028;-84
2022/01/31 09:08:35;;;;;;;10.70;1.75;;;6.60;99.90;;;;;;6275105;22;20023;-84
2022/01/31 09:11:02;;;;;;;6.75;1.38;;;6.70;99.90;;;;;;6275164;22;20444;-83
2022/01/31 09:13:28;;;;;;;16.33;2.47;;;6.70;99.90;;;;;;6275107;22;20137;-82
2022/01/31 09:15:57;;;;;;;15.02;2.03;;;6.80;99.90;;;;;;6275141;22;20053;-84
2022/01/31 09:18:23;;;;;;;5.85;1.20;;;6.90;99.90;;;;;;6275230;22;20020;-84
2022/01/31 09:20:48;;;;;;;15.70;1.55;;;6.90;99.90;;;;;;6275005;22;20394;-83
2022/01/31 09:23:14;;;;;;;6.50;1.13;;;6.90;99.90;;;;;;6275087;22;20015;-84
2022/01/31 09:25:45;;;;;;;13.38;2.58;;;6.90;99.90;;;;;;6275085;22;20011;-88
2022/01/31 09:28:11;;;;;;;12.05;1.30;;;6.90;99.90;;;;;;6275184;22;20336;-84
2022/01/31 09:30:38;;;;;;;15.57;1.92;;;7.00;99.90;;;;;;6276975;22;20016;-85
2022/01/31 09:33:04;;;;;;;15.40;2.10;;;7.10;99.90;;;;;;6276554;22;20027;-85
2022/01/31 09:35:30;;;;;;;13.40;1.75;;;7.10;99.90;;;;;;6275073;22;20008;-86
2022/01/31 09:37:55;;;;;;;14.10;2.28;;;7.10;99.90;;;;;;6274987;22;20024;-82
2022/01/31 09:40:23;;;;;;;18.58;3.50;;;7.20;99.90;;;;;;6275007;22;20342;-81
2022/01/31 09:43:51;;;;;;;12.60;2.85;;;7.20;99.90;;;;;;6274493;22;20024;-81
2022/01/31 09:48:40;;;;;;;8.18;2.03;;;7.30;99.90;;;;;;6276811;22;20077;-84
2022/01/31 09:51:18;;;;;;;9.98;1.63;;;7.30;99.90;;;;;;6274699;22;20046;-86
2022/01/31 09:54:00;;;;;;;17.25;3.40;;;7.30;99.90;;;;;;6274377;22;20047;-84
2022/01/31 09:56:33;;;;;;;8.75;2.17;;;7.40;99.90;;;;;;6274919;22;20443;-86
2022/01/31 09:59:00;;;;;;;21.45;2.15;;;7.40;99.90;;;;;;6274777;22;20046;-86
2022/01/31 10:01:34;;;;;;;11.00;1.58;;;7.50;99.90;;;;;;6274779;22;20023;-86
2022/01/31 10:04:09;;;;;;;5.97;1.27;;;7.50;99.90;;;;;;6275009;22;20019;-83
2022/01/31 10:06:36;;;;;;;14.45;2.08;;;7.50;99.90;;;;;;6275043;22;20444;-83
2022/01/31 10:09:17;;;;;;;9.68;2.22;;;7.50;99.90;;;;;;6280084;22;20022;-91
2022/01/31 10:11:53;;;;;;;13.60;2.35;;;7.60;99.90;;;;;;6279854;22;20027;-84
2022/01/31 10:17:26;;;;;;;12.25;1.80;;;7.70;99.90;;;;;;6279771;22;20023;-85
2022/01/31 10:19:58;;;;;;;16.35;2.67;;;7.80;99.90;;;;;;6279881;22;20019;-87
2022/01/31 10:22:36;;;;;;;16.27;3.03;;;7.90;99.90;;;;;;6280618;22;20020;-92
2022/01/31 10:25:08;;;;;;;19.58;3.00;;;8.00;99.90;;;;;;6281698;22;20057;-86
2022/01/31 10:27:36;;;;;;;19.25;3.97;;;8.00;99.90;;;;;;6281758;22;20050;-83
2022/01/31 10:30:26;;;;;;;14.75;2.83;;;8.00;99.90;;;;;;6281731;22;20496;-87
2022/01/31 10:32:55;;;;;;;16.17;2.60;;;8.00;99.90;;;;;;6281568;22;20051;-88
2022/01/31 10:35:40;;;;;;;15.10;3.25;;;8.10;99.90;;;;;;6282156;22;20011;-90
2022/01/31 10:38:36;;;;;;;17.23;3.28;;;8.20;99.90;;;;;;6282406;22;20049;-89
2022/01/31 10:45:25;;;;;;;18.35;3.42;;;8.30;99.90;;;;;;6309632;22;20031;-91
2022/01/31 10:53:02;;;;;;;14.63;2.45;;;8.30;99.90;;;;;;6281403;22;20020;-85
2022/01/31 10:55:30;;;;;;;20.55;2.92;;;8.40;99.90;;;;;;6283901;22;20062;-90
2022/01/31 10:58:14;;;;;;;25.95;5.55;;;8.30;99.90;;;;;;6276036;22;20394;-87
2022/01/31 11:00:40;;;;;;;23.40;4.35;;;8.30;99.90;;;;;;6276791;22;20446;-87
2022/01/31 11:03:34;;;;;;;22.10;3.53;;;8.30;99.90;;;;;;6272897;22;20020;-88
2022/01/31 11:06:23;;;;;;;20.35;3.67;;;8.40;99.90;;;;;;6276405;22;20065;-88
2022/01/31 11:08:51;;;;;;;21.02;3.40;;;8.40;99.90;;;;;;6276554;22;20069;-83
2022/01/31 11:11:20;;;;;;;30.63;4.78;;;8.40;99.90;;;;;;6276494;22;20018;-84
2022/01/31 11:13:53;;;;;;;28.42;4.25;;;8.40;99.90;;;;;;6276396;22;20024;-88
2022/01/31 11:16:20;;;;;;;17.48;3.63;;;8.40;99.90;;;;;;6276195;22;20012;-84
2022/01/31 11:18:47;;;;;;;24.20;3.72;;;8.40;99.90;;;;;;6276188;22;20386;-88
2022/01/31 11:21:14;;;;;;;19.13;3.80;;;8.40;99.90;;;;;;6276502;22;20340;-86
2022/01/31 11:23:43;;;;;;;26.33;4.20;;;8.20;99.90;;;;;;6273138;22;20086;-89
2022/01/31 11:26:11;;;;;;;23.45;4.60;;;8.20;99.90;;;;;;6260057;22;20776;-88
2022/01/31 11:28:41;;;;;;;17.17;4.15;;;8.30;99.90;;;;;;6272598;22;20023;-88
2022/01/31 11:31:07;;;;;;;16.20;3.88;;;8.30;99.90;;;;;;6276087;22;20047;-85
2022/01/31 11:33:35;;;;;;;13.75;3.03;;;8.30;99.90;;;;;;6276078;22;20070;-85
2022/01/31 11:36:02;;;;;;;14.80;2.35;;;8.30;99.90;;;;;;6275079;22;20016;-84
2022/01/31 11:38:28;;;;;;;24.27;3.22;;;8.40;99.90;;;;;;6275785;22;20016;-84
2022/01/31 11:41:01;;;;;;;18.60;2.80;;;8.40;99.90;;;;;;6275292;22;20028;-85
2022/01/31 11:43:27;;;;;;;20.77;3.60;;;8.40;99.90;;;;;;6275867;22;20010;-85
2022/01/31 11:45:54;;;;;;;17.77;2.63;;;8.50;99.90;;;;;;6276023;22;20474;-85
2022/01/31 11:48:26;;;;;;;12.02;2.05;;;8.50;99.90;;;;;;6275669;22;20335;-85
2022/01/31 11:50:55;;;;;;;16.23;2.70;;;8.50;99.90;;;;;;6275628;22;20022;-85
2022/01/31 11:53:29;;;;;;;9.40;1.67;;;8.50;99.90;;;;;;6275167;22;20351;-85
2022/01/31 11:56:01;;;;;;;15.48;3.30;;;8.50;99.90;;;;;;6275706;22;20331;-86
2022/01/31 11:58:31;;;;;;;19.08;2.95;;;8.60;99.90;;;;;;6275609;22;20497;-84
2022/01/31 12:01:01;;;;;;;15.40;2.95;;;8.50;99.90;;;;;;6276050;22;20051;-88
2022/01/31 12:03:34;;;;;;;17.65;3.17;;;8.50;99.90;;;;;;6275718;22;20072;-85
2022/01/31 12:06:09;;;;;;;;;;;8.50;99.90;;;;;;6276322;22;20012;-86
2022/01/31 12:08:41;;;;;;;17.70;3.65;;;8.50;99.90;;;;;;6277327;22;20247;-86
2022/01/31 12:11:14;;;;;;;16.25;3.72;;;8.50;99.90;;;;;;6275583;22;20016;-86
2022/01/31 12:13:46;;;;;;;22.33;3.28;;;8.40;99.90;;;;;;6275685;22;20061;-86
2022/01/31 12:17:01;;;;;;;17.95;2.33;;;8.40;99.90;;;;;;6275403;22;20342;-88
2022/01/31 12:22:05;;;;;;;26.50;2.88;;;8.40;99.90;;;;;;6275239;22;20078;-87
2022/01/31 12:24:32;;;;;;;21.65;3.65;;;8.30;99.90;;;;;;6275664;22;20012;-87
2022/01/31 12:27:16;;;;;;;22.60;3.00;;;8.40;99.90;;;;;;6275447;22;20022;-87
2022/01/31 12:29:43;;;;;;;16.27;2.33;;;8.30;99.90;;;;;;6275370;22;20081;-88
2022/01/31 12:32:35;;;;;;;21.85;4.15;;;8.30;99.90;;;;;;6275460;22;20023;-85
2022/01/31 12:35:00;;;;;;;14.15;2.70;;;8.40;99.90;;;;;;6275462;22;20023;-87
2022/01/31 12:37:59;;;;;;;24.52;4.50;;;8.30;99.90;;;;;;6275258;22;20019;-84
2022/01/31 12:40:30;;;;;;;17.10;2.83;;;8.30;99.90;;;;;;6268470;22;20011;-86
2022/01/31 12:45:43;;;;;;;22.15;3.10;;;8.30;99.90;;;;;;6275235;22;20050;-87
2022/01/31 12:48:19;;;;;;;19.08;5.40;;;8.30;99.90;;;;;;6273702;22;20094;-87
2022/01/31 12:51:06;;;;;;;20.95;3.45;;;8.30;99.90;;;;;;6275599;22;20023;-84
2022/01/31 12:53:52;;;;;;;24.20;4.53;;;8.30;99.90;;;;;;6275329;22;20019;-91
2022/01/31 12:56:41;;;;;;;27.13;3.45;;;8.30;99.90;;;;;;6275607;22;20016;-87
2022/01/31 12:59:13;;;;;;;14.25;3.00;;;8.30;99.90;;;;;;6276432;22;20320;-89
2022/01/31 13:01:52;;;;;;;22.15;2.90;;;8.30;99.90;;;;;;6275309;22;20061;-88
2022/01/31 13:04:27;;;;;;;21.95;3.15;;;8.30;99.90;;;;;;6275703;22;20447;-88
2022/01/31 13:06:53;;;;;;;24.90;3.80;;;8.30;99.90;;;;;;6276975;22;20070;-94
2022/01/31 13:09:29;;;;;;;25.58;4.60;;;8.10;99.90;;;;;;6277026;22;20501;-87
2022/01/31 13:12:02;;;;;;;30.67;4.22;;;8.10;99.90;;;;;;6275047;22;20016;-87
2022/01/31 13:14:29;;;;;;;27.58;3.63;;;8.10;99.90;;;;;;6275393;22;20034;-91
2022/01/31 13:17:24;;;;;;;21.40;3.72;;;8.10;99.90;;;;;;6275013;22;20807;-88
2022/01/31 13:20:04;;;;;;;21.05;4.18;;;8.10;99.90;;;;;;6275383;22;20102;-87
2022/01/31 13:22:38;;;;;;;23.58;5.43;;;8.10;99.90;;;;;;6274975;22;20016;-87
2022/01/31 13:25:30;;;;;;;16.88;2.88;;;8.20;99.90;;;;;;6275179;22;20456;-86
2022/01/31 13:28:00;;;;;;;16.83;2.83;;;8.10;99.90;;;;;;6275466;22;20035;-93
2022/01/31 13:30:38;;;;;;;9.68;1.92;;;8.30;99.90;;;;;;6275052;22;20051;-89
2022/01/31 13:33:06;;;;;;;19.75;2.58;;;8.30;99.90;;;;;;6277183;22;20024;-88